createdAt,value
2018-03-06T00:01:02.733Z,60.15
2018-03-06T00:03:30.535Z,59.95
2018-03-06T00:05:58.093Z,62.85
2018-03-06T00:08:25.658Z,49.28
2018-03-06T00:10:53.165Z,54.83
2018-03-06T00:13:20.761Z,56.50
2018-03-06T00:15:48.302Z,55.78
2018-03-06T00:18:15.834Z,55.17
2018-03-06T00:20:43.465Z,53.95
2018-03-06T00:23:11.000Z,54.40
2018-03-06T00:25:38.539Z,55.33
2018-03-06T00:28:06.088Z,53.53
2018-03-06T00:30:33.626Z,59.67
2018-03-06T00:33:01.167Z,56.75
2018-03-06T00:35:28.725Z,75.75
2018-03-06T00:37:56.262Z,53.85
2018-03-06T00:40:23.801Z,70.65
2018-03-06T00:42:51.350Z,54.30
2018-03-06T00:45:19.850Z,50.80
2018-03-06T00:47:47.409Z,62.67
2018-03-06T00:50:14.981Z,47.58
2018-03-06T00:52:42.515Z,63.53
2018-03-06T00:55:10.102Z,49.40
2018-03-06T00:57:37.634Z,53.35
2018-03-06T01:00:05.214Z,74.72
2018-03-06T01:02:32.773Z,51.30
2018-03-06T01:05:00.305Z,53.92
2018-03-06T01:07:28.214Z,78.75
2018-03-06T01:09:55.742Z,64.60
2018-03-06T01:12:23.302Z,54.22
2018-03-06T01:14:50.862Z,54.53
2018-03-06T01:17:18.398Z,57.58
2018-03-06T01:19:45.947Z,52.15
2018-03-06T01:22:13.494Z,69.82
2018-03-06T01:24:41.059Z,75.47
2018-03-06T01:27:09.111Z,64.37
2018-03-06T01:29:36.650Z,73.80
2018-03-06T01:32:04.214Z,81.32
2018-03-06T01:34:31.745Z,82.07
2018-03-06T01:36:59.320Z,76.12
2018-03-06T01:39:26.866Z,83.25
2018-03-06T01:41:54.406Z,94.43
2018-03-06T01:44:22.030Z,89.85
2018-03-06T01:46:49.582Z,89.70
2018-03-06T01:49:17.297Z,77.53
2018-03-06T01:51:56.610Z,110.32
2018-03-06T01:54:24.169Z,93.18
2018-03-06T01:56:51.697Z,90.50
2018-03-06T01:59:19.617Z,105.03
2018-03-06T02:01:47.157Z,103.30
2018-03-06T02:04:14.693Z,90.18
2018-03-06T02:06:42.258Z,82.18
2018-03-06T02:09:09.805Z,82.47
2018-03-06T02:11:37.606Z,85.95
2018-03-06T02:14:05.142Z,77.97
2018-03-06T02:16:32.681Z,88.80
2018-03-06T02:19:00.250Z,100.03
2018-03-06T02:21:29.022Z,83.53
2018-03-06T02:23:56.745Z,75.93
2018-03-06T02:26:24.289Z,103.90
2018-03-06T02:28:51.834Z,89.70
2018-03-06T02:31:19.393Z,102.45
2018-03-06T02:33:46.930Z,98.72
2018-03-06T02:36:14.845Z,85.15
2018-03-06T02:38:42.745Z,94.15
2018-03-06T02:41:10.272Z,95.05
2018-03-06T02:43:37.845Z,101.12
2018-03-06T02:46:12.392Z,94.62
2018-03-06T02:48:39.986Z,99.57
2018-03-06T02:51:07.521Z,95.30
2018-03-06T02:53:35.437Z,94.20
2018-03-06T02:56:02.978Z,83.82
2018-03-06T02:58:30.512Z,79.90
2018-03-06T03:00:58.069Z,93.57
2018-03-06T03:03:25.613Z,95.25
2018-03-06T03:05:53.173Z,93.72
2018-03-06T03:08:20.787Z,99.07
2018-03-06T03:10:48.278Z,89.82
2018-03-06T03:13:15.843Z,80.07
2018-03-06T03:15:43.370Z,99.53
2018-03-06T03:18:10.934Z,84.55
2018-03-06T03:20:38.487Z,90.50
2018-03-06T03:23:06.018Z,74.32
2018-03-06T03:25:33.592Z,76.87
2018-03-06T03:28:01.118Z,83.95
2018-03-06T03:30:28.683Z,111.68
2018-03-06T03:32:56.250Z,95.22
2018-03-06T03:35:23.790Z,97.78
2018-03-06T03:37:51.355Z,85.03
2018-03-06T03:40:18.886Z,99.07
2018-03-06T03:42:46.764Z,102.35
2018-03-06T03:45:14.348Z,102.32
2018-03-06T03:47:41.885Z,94.75
2018-03-06T03:50:09.450Z,109.85
2018-03-06T03:52:36.978Z,104.43
2018-03-06T03:55:04.543Z,104.72
2018-03-06T03:57:32.129Z,114.25
2018-03-06T03:59:59.669Z,105.00
2018-03-06T04:02:27.244Z,101.38
2018-03-06T04:04:54.786Z,115.80
2018-03-06T04:07:22.353Z,111.82
2018-03-06T04:09:49.923Z,111.60
2018-03-06T04:12:17.466Z,110.82
2018-03-06T04:14:45.019Z,101.68
2018-03-06T04:17:12.607Z,115.15
2018-03-06T04:19:40.429Z,113.65
2018-03-06T04:22:08.003Z,117.18
2018-03-06T04:24:35.531Z,127.18
2018-03-06T04:27:03.102Z,107.60
2018-03-06T04:29:30.642Z,135.95
2018-03-06T04:31:58.629Z,145.45
2018-03-06T04:34:26.170Z,136.12
2018-03-06T04:36:53.725Z,113.88
2018-03-06T04:39:21.281Z,122.68
2018-03-06T04:41:48.822Z,119.45
2018-03-06T04:44:16.697Z,137.90
2018-03-06T04:46:44.246Z,122.65
2018-03-06T04:49:11.793Z,134.00
2018-03-06T04:51:39.864Z,147.75
2018-03-06T04:54:07.406Z,162.65
2018-03-06T04:56:34.978Z,148.00
2018-03-06T04:59:02.522Z,137.12
2018-03-06T05:01:30.067Z,165.43
2018-03-06T05:03:57.625Z,170.18
2018-03-06T05:06:25.213Z,152.45
2018-03-06T05:08:52.941Z,145.18
2018-03-06T05:11:20.477Z,177.45
2018-03-06T05:13:48.032Z,158.02
2018-03-06T05:16:15.594Z,153.50
2018-03-06T05:18:43.129Z,172.93
2018-03-06T05:21:10.715Z,164.60
2018-03-06T05:23:38.258Z,158.10
2018-03-06T05:26:05.805Z,168.95
2018-03-06T05:28:33.373Z,153.00
2018-03-06T05:31:00.918Z,147.62
2018-03-06T05:33:28.739Z,150.00
2018-03-06T05:35:56.261Z,161.05
2018-03-06T05:38:23.801Z,162.82
2018-03-06T05:40:51.365Z,176.73
2018-03-06T05:43:18.943Z,188.80
2018-03-06T05:45:46.518Z,164.82
2018-03-06T05:48:14.081Z,194.57
2018-03-06T05:50:41.629Z,151.98
2018-03-06T05:53:09.198Z,171.05
2018-03-06T05:55:36.742Z,171.32
2018-03-06T05:58:04.747Z,163.77
2018-03-06T06:00:32.287Z,166.73
2018-03-06T06:02:59.930Z,165.62
2018-03-06T06:05:27.497Z,194.98
2018-03-06T06:07:55.940Z,190.50
2018-03-06T06:10:23.514Z,169.07
2018-03-06T06:12:51.062Z,165.88
2018-03-06T06:15:18.607Z,139.27
2018-03-06T06:17:46.160Z,146.55
2018-03-06T06:20:13.698Z,149.38
2018-03-06T06:22:41.465Z,176.12
2018-03-06T06:25:08.986Z,157.12
2018-03-06T06:27:36.510Z,159.90
2018-03-06T06:30:04.062Z,154.48
2018-03-06T06:32:31.587Z,164.88
2018-03-06T06:34:59.562Z,169.05
2018-03-06T06:37:27.085Z,167.50
2018-03-06T06:39:54.675Z,150.43
2018-03-06T06:42:22.223Z,142.57
2018-03-06T06:44:49.761Z,149.35
2018-03-06T06:47:17.479Z,148.32
2018-03-06T06:49:44.999Z,150.05
2018-03-06T06:52:12.534Z,153.23
2018-03-06T06:54:40.095Z,150.65
2018-03-06T06:57:07.617Z,166.32
2018-03-06T06:59:35.178Z,163.62
2018-03-06T07:02:02.694Z,154.00
2018-03-06T07:04:30.213Z,160.95
2018-03-06T07:06:57.778Z,153.48
2018-03-06T07:09:25.356Z,157.10
2018-03-06T07:11:53.049Z,174.25
2018-03-06T07:14:20.562Z,172.93
2018-03-06T07:16:48.085Z,145.82
2018-03-06T07:19:15.654Z,153.80
2018-03-06T07:21:43.179Z,161.27
2018-03-06T07:24:10.957Z,162.50
2018-03-06T07:26:38.479Z,156.82
2018-03-06T07:29:06.012Z,173.48
2018-03-06T07:31:33.560Z,173.15
2018-03-06T07:34:01.110Z,162.65
2018-03-06T07:36:28.922Z,145.20
2018-03-06T07:38:56.443Z,143.70
2018-03-06T07:41:23.966Z,154.50
2018-03-06T07:43:51.522Z,168.80
2018-03-06T07:46:19.041Z,153.62
2018-03-06T07:48:46.611Z,157.75
2018-03-06T07:51:14.161Z,155.82
2018-03-06T07:53:41.686Z,181.98
2018-03-06T07:56:09.238Z,155.70
2018-03-06T07:58:36.754Z,168.15
2018-03-06T08:01:04.445Z,154.95
2018-03-06T08:03:32.029Z,147.68
2018-03-06T08:05:59.553Z,154.82
2018-03-06T08:08:27.098Z,159.57
2018-03-06T08:10:54.617Z,161.57
2018-03-06T08:13:22.165Z,158.60
2018-03-06T08:15:49.805Z,172.70
2018-03-06T08:18:17.325Z,174.85
2018-03-06T08:20:44.913Z,174.23
2018-03-06T08:23:12.435Z,170.57
2018-03-06T08:25:40.140Z,174.70
2018-03-06T08:28:07.677Z,171.07
2018-03-06T08:30:35.225Z,172.82
2018-03-06T08:33:02.790Z,181.43
2018-03-06T08:35:30.530Z,191.10
2018-03-06T08:37:58.089Z,162.20
2018-03-06T08:40:25.606Z,163.00
2018-03-06T08:42:53.130Z,169.90
2018-03-06T08:45:20.690Z,154.63
2018-03-06T08:47:48.226Z,149.98
2018-03-06T08:50:16.249Z,174.32
2018-03-06T08:52:43.774Z,163.45
2018-03-06T08:55:11.305Z,158.40
2018-03-06T08:57:38.865Z,143.95
2018-03-06T09:00:06.400Z,155.48
2018-03-06T09:02:34.145Z,144.27
2018-03-06T09:05:01.691Z,134.52
2018-03-06T09:07:29.226Z,129.82
2018-03-06T09:09:56.782Z,130.45
2018-03-06T09:12:24.309Z,142.73
2018-03-06T09:14:52.358Z,130.68
2018-03-06T09:17:19.964Z,119.05
2018-03-06T09:19:47.473Z,120.20
2018-03-06T09:22:15.070Z,130.35
2018-03-06T09:24:42.595Z,134.10
2018-03-06T09:27:10.657Z,129.02
2018-03-06T09:29:38.288Z,141.68
2018-03-06T09:32:05.817Z,145.60
2018-03-06T09:34:33.370Z,126.68
2018-03-06T09:37:00.914Z,132.65
2018-03-06T09:39:28.661Z,149.55
2018-03-06T09:41:56.190Z,137.25
2018-03-06T09:44:23.732Z,150.30
2018-03-06T09:46:51.295Z,128.95
2018-03-06T09:49:18.823Z,145.57
2018-03-06T09:51:46.552Z,133.27
2018-03-06T09:54:14.073Z,136.63
2018-03-06T09:56:41.602Z,133.60
2018-03-06T09:59:09.153Z,148.33
2018-03-06T10:01:36.686Z,161.57
2018-03-06T10:04:04.243Z,157.70
2018-03-06T10:06:31.766Z,153.53
2018-03-06T10:08:59.290Z,158.43
2018-03-06T10:11:26.842Z,186.00
2018-03-06T10:13:54.369Z,160.80
2018-03-06T10:16:22.067Z,161.03
2018-03-06T10:18:49.628Z,200.17
2018-03-06T10:21:17.149Z,174.00
2018-03-06T10:23:45.140Z,189.20
2018-03-06T10:26:12.679Z,175.20
2018-03-06T10:28:41.504Z,180.97
2018-03-06T10:31:09.068Z,155.87
2018-03-06T10:33:36.566Z,184.30
2018-03-06T10:36:04.126Z,154.93
2018-03-06T10:38:31.691Z,164.37
2018-03-06T10:40:59.257Z,147.23
2018-03-06T10:43:26.786Z,162.70
2018-03-06T10:45:54.314Z,136.43
2018-03-06T10:48:21.854Z,147.23
2018-03-06T10:50:49.380Z,153.87
2018-03-06T10:53:16.987Z,132.23
2018-03-06T10:55:44.490Z,135.70
2018-03-06T10:58:12.015Z,150.40
2018-03-06T11:00:45.077Z,126.60
2018-03-06T11:03:12.597Z,117.23
2018-03-06T11:05:40.298Z,117.83
2018-03-06T11:08:07.861Z,114.50
2018-03-06T11:10:35.373Z,128.30
2018-03-06T11:13:02.930Z,114.27
2018-03-06T11:15:30.602Z,118.30
2018-03-06T11:17:58.384Z,128.77
2018-03-06T11:20:25.914Z,117.43
2018-03-06T11:22:53.507Z,124.00
2018-03-06T11:25:21.057Z,117.30
2018-03-06T11:27:48.582Z,116.77
2018-03-06T11:30:16.311Z,110.80
2018-03-06T11:35:34.734Z,122.33
2018-03-06T11:38:02.261Z,121.63
2018-03-06T11:40:29.782Z,124.40
2018-03-06T11:42:57.339Z,127.73
2018-03-06T11:45:24.869Z,134.27
2018-03-06T11:47:52.570Z,117.57
2018-03-06T11:50:20.247Z,127.37
2018-03-06T11:52:47.786Z,113.03
2018-03-06T11:55:15.374Z,115.53
2018-03-06T11:57:42.899Z,110.33
2018-03-06T12:00:10.454Z,114.23
2018-03-06T12:02:37.987Z,119.20
2018-03-06T12:05:06.524Z,116.40
2018-03-06T12:07:34.189Z,124.97
2018-03-06T12:10:02.078Z,123.63
2018-03-06T12:12:29.626Z,130.07
2018-03-06T12:14:57.299Z,118.73
2018-03-06T12:17:24.818Z,118.37
2018-03-06T12:19:52.362Z,120.87
2018-03-06T12:22:19.886Z,114.40
2018-03-06T12:24:47.598Z,132.00
2018-03-06T12:27:15.134Z,134.80
2018-03-06T12:29:42.714Z,129.60
2018-03-06T12:32:10.290Z,137.07
2018-03-06T12:34:37.819Z,125.50
2018-03-06T12:37:05.694Z,147.70
2018-03-06T12:39:33.246Z,134.17
2018-03-06T12:42:00.779Z,127.67
2018-03-06T12:44:28.335Z,124.57
2018-03-06T12:46:55.870Z,130.60
2018-03-06T12:49:23.799Z,124.47
2018-03-06T12:51:51.335Z,103.53
2018-03-06T12:54:18.868Z,118.00
2018-03-06T12:56:46.427Z,114.40
2018-03-06T12:59:13.985Z,120.13
2018-03-06T13:01:42.688Z,113.17
2018-03-06T13:04:10.236Z,114.73
2018-03-06T13:06:37.934Z,117.93
2018-03-06T13:09:05.741Z,108.93
2018-03-06T13:11:33.273Z,90.27
2018-03-06T13:14:01.031Z,110.60
2018-03-06T13:16:28.572Z,117.07
2018-03-06T13:18:56.105Z,116.10
2018-03-06T13:21:23.662Z,101.80
2018-03-06T13:23:51.236Z,102.27
2018-03-06T13:26:18.805Z,111.40
2018-03-06T13:28:46.338Z,103.87
2018-03-06T13:31:13.883Z,106.43
2018-03-06T13:33:41.444Z,101.53
2018-03-06T13:36:08.983Z,91.23
2018-03-06T13:38:36.550Z,86.37
2018-03-06T13:41:04.072Z,97.83
2018-03-06T13:43:31.593Z,93.07
2018-03-06T13:45:59.140Z,93.40
2018-03-06T13:48:26.662Z,110.93
2018-03-06T13:50:54.238Z,78.20
2018-03-06T13:53:21.773Z,76.90
2018-03-06T13:55:49.302Z,84.17
2018-03-06T13:58:16.882Z,76.73
2018-03-06T14:00:44.417Z,97.83
2018-03-06T14:03:12.086Z,81.37
2018-03-06T14:05:39.606Z,69.73
2018-03-06T14:08:07.127Z,89.00
2018-03-06T14:10:34.678Z,71.43
2018-03-06T14:13:02.211Z,74.63
2018-03-06T14:15:30.245Z,74.13
2018-03-06T14:17:57.778Z,66.80
2018-03-06T14:20:25.321Z,58.03
2018-03-06T14:22:53.086Z,67.20
2018-03-06T14:25:20.609Z,75.20
2018-03-06T14:27:48.163Z,79.47
2018-03-06T14:30:15.682Z,72.97
2018-03-06T14:32:43.206Z,69.20
2018-03-06T14:35:10.758Z,74.40
2018-03-06T14:37:38.294Z,74.73
2018-03-06T14:40:06.014Z,65.20
2018-03-06T14:42:33.554Z,69.80
2018-03-06T14:45:01.361Z,69.23
2018-03-06T14:47:28.993Z,71.93
2018-03-06T14:49:56.544Z,69.10
2018-03-06T14:52:24.447Z,65.43
2018-03-06T14:54:53.132Z,60.77
2018-03-06T14:57:20.674Z,85.93
2018-03-06T14:59:48.304Z,70.07
2018-03-06T15:02:15.840Z,57.93
2018-03-06T15:04:43.408Z,63.97
2018-03-06T15:07:11.743Z,55.67
2018-03-06T15:09:39.512Z,65.63
2018-03-06T15:12:07.173Z,74.67
2018-03-06T15:14:34.814Z,65.33
2018-03-06T15:17:03.010Z,71.43
2018-03-06T15:19:30.671Z,71.23
2018-03-06T15:21:58.532Z,74.13
2018-03-06T15:24:26.506Z,62.20
2018-03-06T15:26:54.257Z,73.47
2018-03-06T15:29:22.754Z,62.23
2018-03-06T15:31:50.515Z,56.40
2018-03-06T15:34:18.382Z,48.03
2018-03-06T15:36:46.351Z,61.53
2018-03-06T15:39:14.217Z,58.95
2018-03-06T15:41:42.515Z,60.25
2018-03-06T15:44:10.359Z,67.30
2018-03-06T15:46:38.044Z,58.53
2018-03-06T15:49:05.785Z,74.37
2018-03-06T15:51:33.538Z,68.57
2018-03-06T15:54:01.825Z,59.70
2018-03-06T15:56:29.898Z,67.60
2018-03-06T15:58:57.468Z,67.47
2018-03-06T16:01:25.426Z,52.80
2018-03-06T16:03:53.164Z,84.55
2018-03-06T16:06:20.928Z,66.05
2018-03-06T16:08:48.616Z,73.40
2018-03-06T16:11:16.278Z,72.47
2018-03-06T16:13:43.880Z,86.93
2018-03-06T16:16:11.588Z,77.80
2018-03-06T16:18:39.461Z,74.85
2018-03-06T16:21:07.236Z,65.07
2018-03-06T16:23:35.000Z,73.95
2018-03-06T16:26:02.761Z,71.60
2018-03-06T16:28:30.630Z,79.50
2018-03-06T16:30:59.110Z,67.40
2018-03-06T16:33:26.918Z,73.35
2018-03-06T16:35:54.717Z,74.40
2018-03-06T16:38:22.607Z,63.03
2018-03-06T16:40:50.265Z,100.75
2018-03-06T16:43:18.235Z,65.62
2018-03-06T16:45:46.354Z,70.03
2018-03-06T16:48:14.682Z,70.72
2018-03-06T16:50:42.550Z,78.78
2018-03-06T16:53:10.928Z,68.75
2018-03-06T16:55:39.273Z,78.00
2018-03-06T16:58:07.144Z,81.12
2018-03-06T17:00:35.041Z,84.82
2018-03-06T17:03:03.114Z,80.30
2018-03-06T17:05:31.387Z,114.37
2018-03-06T17:07:59.356Z,101.20
2018-03-06T17:10:28.145Z,82.18
2018-03-06T17:12:55.996Z,86.55
2018-03-06T17:15:23.979Z,80.70
2018-03-06T17:17:51.847Z,72.30
2018-03-06T17:20:19.919Z,74.78
2018-03-06T17:22:48.262Z,83.50
2018-03-06T17:25:16.470Z,83.93
2018-03-06T17:27:45.124Z,76.60
2018-03-06T17:30:12.988Z,69.05
2018-03-06T17:32:40.993Z,86.25
2018-03-06T17:35:11.724Z,74.72
2018-03-06T17:37:40.139Z,84.18
2018-03-06T17:40:08.072Z,81.57
2018-03-06T17:42:36.659Z,89.10
2018-03-06T17:45:04.623Z,84.72
2018-03-06T17:47:32.722Z,97.60
2018-03-06T17:50:00.622Z,100.95
2018-03-06T17:52:28.735Z,86.65
2018-03-06T17:54:56.584Z,86.93
2018-03-06T17:57:24.877Z,92.43
2018-03-06T17:59:52.744Z,82.55
2018-03-06T18:02:20.815Z,67.03
2018-03-06T18:04:48.784Z,104.70
2018-03-06T18:07:17.777Z,84.78
2018-03-06T18:09:46.770Z,68.87
2018-03-06T18:12:15.557Z,78.45
2018-03-06T18:14:44.486Z,89.47
2018-03-06T18:17:13.265Z,72.75
2018-03-06T18:19:41.176Z,73.85
2018-03-06T18:22:09.240Z,73.05
2018-03-06T18:24:37.355Z,74.45
2018-03-06T18:27:05.214Z,74.37
2018-03-06T18:29:33.616Z,66.37
2018-03-06T18:32:05.454Z,69.78
2018-03-06T18:34:34.036Z,72.90
2018-03-06T18:37:02.107Z,81.95
2018-03-06T18:39:29.935Z,69.10
2018-03-06T18:41:57.841Z,77.30
2018-03-06T18:44:25.912Z,66.00
2018-03-06T18:46:54.086Z,61.40
2018-03-06T18:49:22.482Z,76.55
2018-03-06T18:51:50.391Z,73.50
2018-03-06T18:54:18.283Z,64.78
2018-03-06T18:56:46.268Z,72.43
2018-03-06T18:59:14.544Z,62.30
2018-03-06T19:02:16.283Z,61.50
2018-03-06T19:04:55.966Z,51.85
2018-03-06T19:07:24.389Z,70.80
2018-03-06T19:09:53.114Z,67.60
2018-03-06T19:12:21.500Z,61.55
2018-03-06T19:14:49.361Z,63.28
2018-03-06T19:17:17.330Z,59.80
2018-03-06T19:19:45.503Z,59.60
2018-03-06T19:22:13.339Z,54.58
2018-03-06T19:24:41.507Z,67.00
2018-03-06T19:27:10.265Z,56.10
2018-03-06T19:29:38.197Z,59.95
2018-03-06T19:32:06.270Z,60.25
2018-03-06T19:34:34.137Z,62.35
2018-03-06T19:37:02.105Z,65.18
2018-03-06T19:42:02.035Z,55.92
2018-03-06T19:44:30.644Z,58.85
2018-03-06T19:46:58.588Z,56.58
2018-03-06T19:49:27.025Z,47.62
2018-03-06T19:51:55.056Z,48.78
2018-03-06T19:54:23.213Z,56.85
2018-03-06T19:56:51.896Z,53.42
2018-03-06T19:59:19.763Z,52.08
2018-03-06T20:01:48.807Z,52.20
2018-03-06T20:04:16.726Z,46.67
2018-03-06T20:06:45.138Z,49.75
2018-03-06T20:09:13.056Z,59.13
2018-03-06T20:11:40.898Z,49.38
2018-03-06T20:14:08.827Z,46.75
2018-03-06T20:16:36.796Z,41.70
2018-03-06T20:19:10.876Z,53.63
2018-03-06T20:21:39.880Z,60.05
2018-03-06T20:27:11.863Z,55.08
2018-03-06T20:29:40.346Z,44.60
2018-03-06T20:32:13.862Z,58.75
2018-03-06T20:34:41.913Z,57.75
2018-03-06T20:37:09.903Z,61.90
2018-03-06T20:39:43.398Z,65.47
2018-03-06T20:42:11.769Z,77.55
2018-03-06T20:44:39.656Z,64.70
2018-03-06T20:47:13.078Z,71.03
2018-03-06T20:49:40.950Z,76.72
2018-03-06T20:52:09.781Z,82.53
2018-03-06T20:54:43.485Z,82.47
2018-03-06T20:57:11.452Z,79.55
2018-03-06T20:59:39.319Z,77.87
2018-03-06T21:02:07.185Z,84.70
2018-03-06T21:04:35.051Z,87.72
2018-03-06T21:07:03.024Z,88.65
2018-03-06T21:09:31.391Z,79.10
2018-03-06T21:11:59.368Z,89.62
2018-03-06T21:14:27.749Z,95.97
2018-03-06T21:16:55.983Z,72.37
2018-03-06T21:19:25.292Z,66.12
2018-03-06T21:21:53.189Z,78.30
2018-03-06T21:24:21.259Z,72.53
2018-03-06T21:26:49.399Z,81.72
2018-03-06T21:29:17.307Z,83.25
2018-03-06T21:31:45.234Z,85.20
2018-03-06T21:34:13.100Z,71.50
2018-03-06T21:36:41.002Z,66.05
2018-03-06T21:39:08.869Z,75.82
2018-03-06T21:41:36.704Z,77.50
2018-03-06T21:44:05.116Z,73.82
2018-03-06T21:46:32.981Z,75.45
2018-03-06T21:49:01.227Z,69.03
2018-03-06T21:51:29.225Z,83.30
2018-03-06T21:53:57.194Z,76.07
2018-03-06T21:56:25.167Z,73.22
2018-03-06T21:58:53.150Z,85.20
2018-03-06T22:01:21.002Z,77.95
2018-03-06T22:03:49.852Z,76.70
2018-03-06T22:06:17.697Z,69.00
2018-03-06T22:08:45.728Z,69.25
2018-03-06T22:11:14.308Z,71.47
2018-03-06T22:13:42.594Z,73.50
2018-03-06T22:16:10.453Z,73.43
2018-03-06T22:18:38.426Z,64.75
2018-03-06T22:21:06.663Z,73.18
2018-03-06T22:23:35.049Z,78.97
2018-03-06T22:26:03.477Z,76.90
2018-03-06T22:28:31.535Z,78.72
2018-03-06T22:30:59.493Z,79.95
2018-03-06T22:33:27.329Z,65.40
2018-03-06T22:35:59.527Z,73.00
2018-03-06T22:38:27.409Z,66.57
2018-03-06T22:40:55.331Z,72.20
2018-03-06T22:43:23.344Z,67.07
2018-03-06T22:45:51.287Z,71.68
2018-03-06T22:48:19.083Z,68.30
2018-03-06T22:50:46.894Z,69.62
2018-03-06T22:53:15.061Z,74.00
2018-03-06T22:55:42.631Z,70.00
2018-03-06T22:58:10.531Z,62.60
2018-03-06T23:00:38.831Z,71.72
2018-03-06T23:03:06.421Z,75.37
2018-03-06T23:05:35.465Z,82.07
2018-03-06T23:08:03.033Z,65.03
2018-03-06T23:10:30.883Z,78.53
2018-03-06T23:12:58.754Z,72.93
2018-03-06T23:15:26.954Z,76.50
2018-03-06T23:17:54.862Z,71.65
2018-03-06T23:20:22.866Z,62.22
2018-03-06T23:22:50.410Z,69.70
2018-03-06T23:25:17.958Z,67.12
2018-03-06T23:27:45.646Z,64.80
2018-03-06T23:30:13.490Z,75.43
2018-03-06T23:32:41.004Z,72.00
2018-03-06T23:35:08.523Z,64.55
2018-03-06T23:37:36.077Z,64.40
2018-03-06T23:40:03.598Z,64.07
2018-03-06T23:42:31.436Z,59.88
2018-03-06T23:44:58.953Z,64.15
2018-03-06T23:47:26.471Z,59.70
2018-03-06T23:49:54.026Z,57.10
2018-03-06T23:52:21.631Z,54.30
2018-03-06T23:54:49.187Z,49.25
2018-03-06T23:57:16.717Z,44.95
2018-03-06T23:59:44.242Z,46.88
